createdAt,value
2022-12-23T00:03:09.327Z,9.20
2022-12-23T00:08:11.896Z,9.43
2022-12-23T00:13:33.343Z,8.98
2022-12-23T00:18:36.468Z,9.52
2022-12-23T00:23:40.849Z,9.57
2022-12-23T00:28:44.829Z,10.38
2022-12-23T00:33:49.053Z,9.88
2022-12-23T00:39:09.660Z,10.03
2022-12-23T00:44:13.459Z,9.85
2022-12-23T00:49:36.149Z,10.15
2022-12-23T00:54:38.737Z,11.33
2022-12-23T00:59:42.515Z,10.63
2022-12-23T01:05:02.791Z,10.25
2022-12-23T01:10:05.951Z,11.13
2022-12-23T01:15:10.771Z,11.47
2022-12-23T01:20:13.923Z,10.90
2022-12-23T01:25:16.499Z,10.88
2022-12-23T01:30:20.595Z,11.20
2022-12-23T01:35:23.075Z,10.98
2022-12-23T01:40:25.571Z,10.80
2022-12-23T01:45:31.418Z,10.93
2022-12-23T01:50:37.750Z,11.07
2022-12-23T01:55:45.975Z,11.63
2022-12-23T02:01:07.710Z,11.48
2022-12-23T02:06:30.218Z,11.10
2022-12-23T02:11:50.150Z,11.25
2022-12-23T02:17:01.146Z,12.20
2022-12-23T02:22:24.036Z,11.90
2022-12-23T02:27:31.416Z,12.18
2022-12-23T02:32:50.852Z,11.80
2022-12-23T02:37:56.924Z,12.87
2022-12-23T02:43:03.335Z,12.97
2022-12-23T02:48:11.485Z,12.60
2022-12-23T02:53:19.871Z,13.02
2022-12-23T02:58:25.959Z,13.83
2022-12-23T03:03:30.295Z,13.77
2022-12-23T03:08:40.388Z,13.02
2022-12-23T03:13:56.416Z,12.47
2022-12-23T03:19:11.263Z,13.20
2022-12-23T03:24:23.428Z,12.85
2022-12-23T03:29:31.667Z,12.57
2022-12-23T03:34:40.213Z,13.83
2022-12-23T03:39:47.774Z,14.00
2022-12-23T03:45:28.035Z,12.52
2022-12-23T03:50:20.350Z,13.77
2022-12-23T03:55:28.595Z,14.05
2022-12-23T04:00:39.735Z,13.95
2022-12-23T04:05:48.779Z,13.47
2022-12-23T04:10:51.934Z,14.85
2022-12-23T04:15:55.003Z,15.05
2022-12-23T04:20:58.886Z,14.80
2022-12-23T04:26:01.373Z,15.00
2022-12-23T04:31:03.976Z,14.95
2022-12-23T04:36:08.130Z,14.93
2022-12-23T04:41:10.584Z,15.13
2022-12-23T04:46:13.128Z,14.82
2022-12-23T04:51:16.972Z,14.48
2022-12-23T04:56:19.485Z,14.40
2022-12-23T05:01:22.092Z,14.32
2022-12-23T05:06:25.975Z,15.35
2022-12-23T05:11:28.550Z,14.93
2022-12-23T05:16:32.021Z,16.03
2022-12-23T05:21:35.942Z,15.38
2022-12-23T05:26:38.454Z,16.40
2022-12-23T05:31:40.967Z,14.83
2022-12-23T05:36:44.782Z,16.55
2022-12-23T05:41:47.277Z,15.82
2022-12-23T05:46:49.809Z,16.27
2022-12-23T05:51:53.637Z,15.27
2022-12-23T05:56:56.208Z,16.40
2022-12-23T06:01:58.878Z,16.50
2022-12-23T06:07:02.818Z,17.20
2022-12-23T06:12:05.747Z,16.10
2022-12-23T06:17:08.307Z,15.88
2022-12-23T06:22:12.127Z,16.00
2022-12-23T06:27:14.882Z,15.38
2022-12-23T06:32:17.495Z,15.43
2022-12-23T06:37:21.848Z,15.67
2022-12-23T06:42:24.324Z,17.02
2022-12-23T06:47:26.785Z,16.48
2022-12-23T06:52:30.603Z,16.07
2022-12-23T06:57:33.081Z,15.73
2022-12-23T07:02:35.810Z,15.73
2022-12-23T07:07:39.683Z,16.25
2022-12-23T07:12:46.095Z,15.00
2022-12-23T07:17:52.913Z,15.95
2022-12-23T07:22:57.019Z,15.38
2022-12-23T07:27:59.671Z,15.40
2022-12-23T07:33:02.136Z,14.35
2022-12-23T07:38:06.133Z,14.93
2022-12-23T07:43:08.626Z,16.47
2022-12-23T07:48:11.090Z,13.87
2022-12-23T07:53:14.895Z,15.32
2022-12-23T07:58:17.390Z,15.40
2022-12-23T08:03:19.974Z,14.80
2022-12-23T08:08:23.868Z,15.95
2022-12-23T08:13:26.363Z,15.93
2022-12-23T08:18:31.206Z,15.30
2022-12-23T08:23:35.487Z,15.70
2022-12-23T08:28:39.458Z,15.93
2022-12-23T08:33:44.250Z,14.83
2022-12-23T08:38:48.082Z,15.53
2022-12-23T08:43:50.762Z,15.85
2022-12-23T08:48:53.807Z,17.27
2022-12-23T08:54:01.133Z,16.47
2022-12-23T08:59:04.814Z,17.17
2022-12-23T09:04:08.457Z,16.40
2022-12-23T09:09:14.490Z,16.17
2022-12-23T09:14:17.056Z,16.17
2022-12-23T09:19:19.742Z,16.35
2022-12-23T09:24:23.582Z,15.83
2022-12-23T09:29:26.092Z,14.40
2022-12-23T09:34:28.583Z,14.40
2022-12-23T09:39:32.863Z,14.15
2022-12-23T09:45:00.281Z,12.60
2022-12-23T09:50:06.501Z,13.35
2022-12-23T09:55:12.779Z,12.77
2022-12-23T10:00:17.822Z,12.10
2022-12-23T10:05:31.194Z,12.23
2022-12-23T10:10:40.612Z,11.02
2022-12-23T10:15:49.047Z,11.53
2022-12-23T10:20:54.770Z,10.87
2022-12-23T10:25:58.652Z,10.57
2022-12-23T10:31:38.130Z,12.20
2022-12-23T10:36:37.030Z,11.03
2022-12-23T10:41:49.893Z,11.68
2022-12-23T10:47:01.030Z,10.95
2022-12-23T10:52:11.500Z,11.20
2022-12-23T10:57:18.193Z,9.27
2022-12-23T11:02:45.204Z,9.60
2022-12-23T11:07:47.955Z,9.90
2022-12-23T11:12:54.042Z,8.60
2022-12-23T11:18:02.158Z,8.48
2022-12-23T11:23:07.114Z,8.27
2022-12-23T11:28:16.943Z,9.87
2022-12-23T11:33:25.441Z,8.95
2022-12-23T11:38:28.024Z,7.65
2022-12-23T11:43:33.947Z,8.90
2022-12-23T11:48:36.437Z,9.25
2022-12-23T11:53:43.935Z,9.30
2022-12-23T11:58:52.387Z,9.33
2022-12-23T12:03:59.973Z,8.40
2022-12-23T12:09:05.474Z,9.48
2022-12-23T12:14:09.733Z,9.23
2022-12-23T12:19:16.673Z,9.77
2022-12-23T12:24:25.551Z,9.73
2022-12-23T12:29:35.476Z,9.88
2022-12-23T12:34:44.634Z,10.40
2022-12-23T12:39:54.259Z,9.80
2022-12-23T12:45:03.710Z,10.18
2022-12-23T12:50:14.670Z,9.83
2022-12-23T12:55:23.991Z,9.23
2022-12-23T13:00:28.262Z,9.68
2022-12-23T13:05:53.299Z,9.05
2022-12-23T13:11:03.138Z,9.73
2022-12-23T13:16:17.944Z,9.88
2022-12-23T13:21:25.499Z,9.82
2022-12-23T13:26:37.068Z,10.47
2022-12-23T13:31:49.603Z,9.60
2022-12-23T13:37:02.278Z,9.48
2022-12-23T13:42:09.059Z,9.70
2022-12-23T13:47:22.932Z,9.73
2022-12-23T13:52:35.936Z,9.80
2022-12-23T13:57:50.374Z,10.65
2022-12-23T14:03:07.314Z,13.33
2022-12-23T14:08:22.936Z,12.77
2022-12-23T14:13:29.989Z,10.27
2022-12-23T14:18:57.224Z,10.63
2022-12-23T14:24:27.633Z,13.02
2022-12-23T14:29:45.216Z,11.15
2022-12-23T14:35:17.205Z,10.30
2022-12-23T14:40:49.350Z,9.40
2022-12-23T14:45:53.404Z,10.00
2022-12-23T14:51:01.324Z,9.98
2022-12-23T14:56:23.721Z,10.50
2022-12-23T15:01:32.516Z,10.30
2022-12-23T15:06:40.393Z,9.25
2022-12-23T15:11:43.562Z,9.57
2022-12-23T15:16:46.486Z,10.48
2022-12-23T15:22:00.319Z,12.35
2022-12-23T15:27:26.685Z,21.73
2022-12-23T15:32:30.553Z,20.87
2022-12-23T15:37:35.390Z,19.17
2022-12-23T15:42:38.443Z,17.92
2022-12-23T15:47:42.909Z,19.47
2022-12-23T15:52:50.083Z,28.17
2022-12-23T15:57:53.321Z,27.10
2022-12-23T16:03:01.811Z,12.87
2022-12-23T16:08:12.379Z,13.43
2022-12-23T16:13:19.043Z,25.08
2022-12-23T16:18:23.861Z,32.23
2022-12-23T16:23:31.702Z,27.03
2022-12-23T16:28:39.541Z,17.83
2022-12-23T16:33:44.313Z,26.70
2022-12-23T16:38:50.651Z,18.20
2022-12-23T16:43:53.303Z,12.63
2022-12-23T16:48:58.474Z,11.85
2022-12-23T16:54:02.844Z,29.87
2022-12-23T16:59:05.967Z,10.95
2022-12-23T17:04:08.977Z,11.30
2022-12-23T17:09:13.568Z,10.27
2022-12-23T17:14:18.792Z,8.83
2022-12-23T17:19:27.972Z,17.88
2022-12-23T17:24:33.514Z,15.40
2022-12-23T17:29:36.021Z,13.80
2022-12-23T17:34:38.565Z,12.98
2022-12-23T17:39:43.191Z,13.73
2022-12-23T17:44:46.148Z,9.13
2022-12-23T17:49:49.612Z,9.15
2022-12-23T17:54:53.431Z,27.92
2022-12-23T17:59:56.778Z,12.50
2022-12-23T18:04:59.940Z,10.60
2022-12-23T18:10:03.975Z,15.55
2022-12-23T18:15:15.191Z,11.60
2022-12-23T18:20:19.631Z,10.90
2022-12-23T18:25:26.027Z,9.75
2022-12-23T18:30:28.681Z,8.13
2022-12-23T18:35:33.788Z,8.20
2022-12-23T18:40:37.744Z,8.95
2022-12-23T18:45:42.416Z,6.78
2022-12-23T18:50:46.429Z,5.93
2022-12-23T18:55:50.709Z,7.87
2022-12-23T19:00:54.175Z,7.97
2022-12-23T19:05:58.148Z,7.50
2022-12-23T19:11:02.782Z,6.43
2022-12-23T19:16:06.020Z,6.30
2022-12-23T19:21:09.181Z,5.05
2022-12-23T19:26:14.943Z,5.07
2022-12-23T19:31:18.284Z,6.25
2022-12-23T19:36:23.536Z,9.40
2022-12-23T19:41:27.432Z,6.80
2022-12-23T19:46:30.151Z,5.13
2022-12-23T19:51:32.785Z,11.55
2022-12-23T19:56:36.631Z,7.72
2022-12-23T20:01:39.226Z,6.63
2022-12-23T20:06:42.748Z,8.35
2022-12-23T20:11:48.275Z,9.85
2022-12-23T20:16:51.442Z,10.57
2022-12-23T20:21:53.981Z,10.35
2022-12-23T20:26:59.153Z,10.75
2022-12-23T20:32:01.810Z,12.70
2022-12-23T20:37:04.565Z,10.80
2022-12-23T20:42:08.508Z,18.30
2022-12-23T20:47:11.712Z,10.65
2022-12-23T20:52:14.184Z,14.27
2022-12-23T20:57:18.376Z,13.27
2022-12-23T21:02:21.314Z,11.45
2022-12-23T21:07:26.117Z,9.70
2022-12-23T21:12:30.228Z,9.73
2022-12-23T21:17:33.683Z,13.38
2022-12-23T21:22:36.176Z,17.37
2022-12-23T21:27:41.506Z,12.03
2022-12-23T21:32:43.999Z,10.20
2022-12-23T21:37:46.497Z,13.30
2022-12-23T21:42:50.330Z,10.30
2022-12-23T21:47:52.841Z,11.52
2022-12-23T21:52:55.333Z,11.85
2022-12-23T21:57:59.139Z,9.47
2022-12-23T22:03:01.872Z,8.50
2022-12-23T22:08:04.479Z,7.68
2022-12-23T22:13:08.300Z,8.40
2022-12-23T22:18:10.987Z,7.37
2022-12-23T22:23:13.483Z,7.22
2022-12-23T22:28:17.299Z,7.53
2022-12-23T22:33:21.059Z,6.50
2022-12-23T22:38:23.531Z,6.95
2022-12-23T22:43:27.417Z,6.82
2022-12-23T22:48:31.334Z,6.87
2022-12-23T22:53:34.929Z,6.68
2022-12-23T22:58:39.001Z,6.30
2022-12-23T23:03:41.482Z,5.90
2022-12-23T23:08:43.997Z,6.83
2022-12-23T23:13:47.842Z,6.72
2022-12-23T23:18:50.405Z,5.93
2022-12-23T23:23:53.086Z,5.97
2022-12-23T23:28:57.317Z,6.28
2022-12-23T23:33:59.841Z,6.05
2022-12-23T23:39:02.351Z,5.90
2022-12-23T23:44:06.543Z,5.72
2022-12-23T23:49:09.084Z,5.75
2022-12-23T23:54:11.681Z,5.80
2022-12-23T23:59:15.532Z,5.83
